sensor_id;sensor_type;location;lat;lon;timestamp;pressure;altitude;pressure_sealevel;temperature;humidity
5298;BME280;14738;42.668;23.250;2023-04-25T00:01:20;48410.16;;;-141.90;100.00
5298;BME280;14738;42.668;23.250;2023-04-25T00:03:47;48418.09;;;-141.90;100.00
5298;BME280;14738;42.668;23.250;2023-04-25T00:06:12;48390.31;;;-141.90;100.00
5298;BME280;14738;42.668;23.250;2023-04-25T00:08:38;48390.31;;;-141.90;100.00
5298;BME280;14738;42.668;23.250;2023-04-25T00:11:04;48392.28;;;-141.90;100.00
5298;BME280;14738;42.668;23.250;2023-04-25T00:13:30;48392.28;;;-141.90;100.00
5298;BME280;14738;42.668;23.250;2023-04-25T00:15:55;48372.44;;;-141.90;100.00
5298;BME280;14738;42.668;23.250;2023-04-25T00:18:23;48402.22;;;-141.90;100.00
5298;BME280;14738;42.668;23.250;2023-04-25T00:20:49;48396.25;;;-141.90;100.00
5298;BME280;14738;42.668;23.250;2023-04-25T00:23:17;48390.31;;;-141.90;100.00
5298;BME280;14738;42.668;23.250;2023-04-25T00:25:47;48370.44;;;-141.90;100.00
5298;BME280;14738;42.668;23.250;2023-04-25T00:28:13;48390.31;;;-141.90;100.00
5298;BME280;14738;42.668;23.250;2023-04-25T00:30:39;48384.34;;;-141.90;100.00
5298;BME280;14738;42.668;23.250;2023-04-25T00:33:05;48390.31;;;-141.90;100.00
5298;BME280;14738;42.668;23.250;2023-04-25T00:35:31;48394.28;;;-141.90;100.00
5298;BME280;14738;42.668;23.250;2023-04-25T00:37:57;48358.53;;;-141.90;100.00
5298;BME280;14738;42.668;23.250;2023-04-25T00:40:22;48396.25;;;-141.90;100.00
5298;BME280;14738;42.668;23.250;2023-04-25T00:42:49;48370.44;;;-141.90;100.00
5298;BME280;14738;42.668;23.250;2023-04-25T00:45:14;48378.38;;;-141.90;100.00
5298;BME280;14738;42.668;23.250;2023-04-25T00:47:41;48386.34;;;-141.90;100.00
5298;BME280;14738;42.668;23.250;2023-04-25T00:50:07;48384.34;;;-141.90;100.00
5298;BME280;14738;42.668;23.250;2023-04-25T00:52:33;48394.28;;;-141.90;100.00
5298;BME280;14738;42.668;23.250;2023-04-25T00:54:59;48390.31;;;-141.90;100.00
5298;BME280;14738;42.668;23.250;2023-04-25T00:57:24;48394.28;;;-141.90;100.00
5298;BME280;14738;42.668;23.250;2023-04-25T00:59:51;48398.25;;;-141.90;100.00
5298;BME280;14738;42.668;23.250;2023-04-25T01:02:18;48384.34;;;-141.90;100.00
5298;BME280;14738;42.668;23.250;2023-04-25T01:04:44;48342.66;;;-141.90;100.00
5298;BME280;14738;42.668;23.250;2023-04-25T01:07:10;48368.47;;;-141.90;100.00
5298;BME280;14738;42.668;23.250;2023-04-25T01:09:35;48398.25;;;-141.90;100.00
5298;BME280;14738;42.668;23.250;2023-04-25T01:12:02;48394.28;;;-141.90;100.00
5298;BME280;14738;42.668;23.250;2023-04-25T01:14:28;48362.50;;;-141.90;100.00
5298;BME280;14738;42.668;23.250;2023-04-25T01:16:55;48402.22;;;-141.90;100.00
5298;BME280;14738;42.668;23.250;2023-04-25T01:19:20;48398.25;;;-141.90;100.00
5298;BME280;14738;42.668;23.250;2023-04-25T01:21:46;48378.38;;;-141.90;100.00
5298;BME280;14738;42.668;23.250;2023-04-25T01:24:13;48374.41;;;-141.90;100.00
5298;BME280;14738;42.668;23.250;2023-04-25T01:26:40;48390.31;;;-141.90;100.00
5298;BME280;14738;42.668;23.250;2023-04-25T01:29:09;48398.25;;;-141.90;100.00
5298;BME280;14738;42.668;23.250;2023-04-25T01:31:36;48390.31;;;-141.90;100.00
5298;BME280;14738;42.668;23.250;2023-04-25T01:34:02;48392.28;;;-141.90;100.00
5298;BME280;14738;42.668;23.250;2023-04-25T01:36:27;48396.25;;;-141.90;100.00
5298;BME280;14738;42.668;23.250;2023-04-25T01:38:53;48390.31;;;-141.90;100.00
5298;BME280;14738;42.668;23.250;2023-04-25T01:41:19;48394.28;;;-141.90;100.00
5298;BME280;14738;42.668;23.250;2023-04-25T01:43:45;48380.38;;;-141.90;100.00
5298;BME280;14738;42.668;23.250;2023-04-25T01:46:11;48376.41;;;-141.90;100.00
5298;BME280;14738;42.668;23.250;2023-04-25T01:48:37;48418.09;;;-141.90;100.00
5298;BME280;14738;42.668;23.250;2023-04-25T01:51:02;48402.22;;;-141.90;100.00
5298;BME280;14738;42.668;23.250;2023-04-25T01:53:28;48402.22;;;-141.90;100.00
5298;BME280;14738;42.668;23.250;2023-04-25T01:55:54;48402.22;;;-141.90;100.00
5298;BME280;14738;42.668;23.250;2023-04-25T01:58:19;48394.28;;;-141.90;100.00
5298;BME280;14738;42.668;23.250;2023-04-25T02:00:46;48380.38;;;-141.90;100.00
5298;BME280;14738;42.668;23.250;2023-04-25T02:03:11;48412.13;;;-141.90;100.00
5298;BME280;14738;42.668;23.250;2023-04-25T02:05:37;48414.13;;;-141.90;100.00
5298;BME280;14738;42.668;23.250;2023-04-25T02:08:05;48400.22;;;-141.90;100.00
5298;BME280;14738;42.668;23.250;2023-04-25T02:10:30;48430.00;;;-141.90;100.00
5298;BME280;14738;42.668;23.250;2023-04-25T02:12:57;48418.09;;;-141.90;100.00
5298;BME280;14738;42.668;23.250;2023-04-25T02:15:22;48418.09;;;-141.90;100.00
5298;BME280;14738;42.668;23.250;2023-04-25T02:17:48;48396.25;;;-141.90;100.00
5298;BME280;14738;42.668;23.250;2023-04-25T02:20:13;48398.25;;;-141.90;100.00
5298;BME280;14738;42.668;23.250;2023-04-25T02:22:41;48410.16;;;-141.90;100.00
5298;BME280;14738;42.668;23.250;2023-04-25T02:25:07;48400.22;;;-141.90;100.00
5298;BME280;14738;42.668;23.250;2023-04-25T02:27:34;48358.53;;;-141.90;100.00
5298;BME280;14738;42.668;23.250;2023-04-25T02:29:59;48400.22;;;-141.90;100.00
5298;BME280;14738;42.668;23.250;2023-04-25T02:32:25;48414.13;;;-141.90;100.00
5298;BME280;14738;42.668;23.250;2023-04-25T02:34:50;48414.13;;;-141.90;100.00
5298;BME280;14738;42.668;23.250;2023-04-25T02:37:16;48414.13;;;-141.90;100.00
5298;BME280;14738;42.668;23.250;2023-04-25T02:39:41;48390.31;;;-141.90;100.00
5298;BME280;14738;42.668;23.250;2023-04-25T02:42:06;48386.34;;;-141.90;100.00
5298;BME280;14738;42.668;23.250;2023-04-25T02:44:32;48406.19;;;-141.90;100.00
5298;BME280;14738;42.668;23.250;2023-04-25T02:46:57;48394.28;;;-141.90;100.00
5298;BME280;14738;42.668;23.250;2023-04-25T02:49:22;48364.50;;;-141.90;100.00
5298;BME280;14738;42.668;23.250;2023-04-25T02:51:48;48406.19;;;-141.90;100.00
5298;BME280;14738;42.668;23.250;2023-04-25T02:54:13;48437.94;;;-141.90;100.00
5298;BME280;14738;42.668;23.250;2023-04-25T02:56:39;48376.41;;;-141.90;100.00
5298;BME280;14738;42.668;23.250;2023-04-25T02:59:04;48390.31;;;-141.90;100.00
5298;BME280;14738;42.668;23.250;2023-04-25T03:01:30;48412.13;;;-141.90;100.00
5298;BME280;14738;42.668;23.250;2023-04-25T03:03:55;48374.41;;;-141.90;100.00
5298;BME280;14738;42.668;23.250;2023-04-25T03:06:20;48400.22;;;-141.90;100.00
5298;BME280;14738;42.668;23.250;2023-04-25T03:08:46;48394.28;;;-141.90;100.00
5298;BME280;14738;42.668;23.250;2023-04-25T03:11:11;48414.13;;;-141.90;100.00
5298;BME280;14738;42.668;23.250;2023-04-25T03:13:36;48400.22;;;-141.90;100.00
5298;BME280;14738;42.668;23.250;2023-04-25T03:16:02;48402.22;;;-141.90;100.00
5298;BME280;14738;42.668;23.250;2023-04-25T03:18:27;48410.16;;;-141.90;100.00
5298;BME280;14738;42.668;23.250;2023-04-25T03:20:53;48390.31;;;-141.90;100.00
5298;BME280;14738;42.668;23.250;2023-04-25T03:23:18;48430.00;;;-141.90;100.00
5298;BME280;14738;42.668;23.250;2023-04-25T03:25:44;48414.13;;;-141.90;100.00
5298;BME280;14738;42.668;23.250;2023-04-25T03:28:09;48428.03;;;-141.90;100.00
5298;BME280;14738;42.668;23.250;2023-04-25T03:30:34;48380.38;;;-141.90;100.00
5298;BME280;14738;42.668;23.250;2023-04-25T03:33:00;48424.06;;;-141.90;100.00
5298;BME280;14738;42.668;23.250;2023-04-25T03:35:25;48386.34;;;-141.90;100.00
5298;BME280;14738;42.668;23.250;2023-04-25T03:37:50;48404.19;;;-141.90;100.00
5298;BME280;14738;42.668;23.250;2023-04-25T03:40:16;48418.09;;;-141.90;100.00
5298;BME280;14738;42.668;23.250;2023-04-25T03:42:41;48424.06;;;-141.90;100.00
5298;BME280;14738;42.668;23.250;2023-04-25T03:45:07;48388.31;;;-141.90;100.00
5298;BME280;14738;42.668;23.250;2023-04-25T03:47:33;48406.19;;;-141.90;100.00
5298;BME280;14738;42.668;23.250;2023-04-25T03:49:58;48418.09;;;-141.90;100.00
5298;BME280;14738;42.668;23.250;2023-04-25T03:52:25;48422.06;;;-141.90;100.00
5298;BME280;14738;42.668;23.250;2023-04-25T03:54:51;48414.13;;;-141.90;100.00
5298;BME280;14738;42.668;23.250;2023-04-25T03:57:16;48408.16;;;-141.90;100.00
5298;BME280;14738;42.668;23.250;2023-04-25T03:59:42;48422.06;;;-141.90;100.00
5298;BME280;14738;42.668;23.250;2023-04-25T04:02:07;48410.16;;;-141.90;100.00
5298;BME280;14738;42.668;23.250;2023-04-25T04:04:32;48398.25;;;-141.90;100.00
5298;BME280;14738;42.668;23.250;2023-04-25T04:06:58;48402.22;;;-141.90;100.00
5298;BME280;14738;42.668;23.250;2023-04-25T04:09:23;48364.50;;;-141.90;100.00
5298;BME280;14738;42.668;23.250;2023-04-25T04:11:49;48404.19;;;-141.90;100.00
5298;BME280;14738;42.668;23.250;2023-04-25T04:14:14;48400.22;;;-141.90;100.00
5298;BME280;14738;42.668;23.250;2023-04-25T04:16:40;48380.38;;;-141.90;100.00
5298;BME280;14738;42.668;23.250;2023-04-25T04:19:05;48398.25;;;-141.90;100.00
5298;BME280;14738;42.668;23.250;2023-04-25T04:21:31;48390.31;;;-141.90;100.00
5298;BME280;14738;42.668;23.250;2023-04-25T04:23:57;48414.13;;;-141.90;100.00
5298;BME280;14738;42.668;23.250;2023-04-25T04:26:23;48398.25;;;-141.90;100.00
5298;BME280;14738;42.668;23.250;2023-04-25T04:28:52;48398.25;;;-141.90;100.00
5298;BME280;14738;42.668;23.250;2023-04-25T04:31:19;48382.34;;;-141.90;100.00
5298;BME280;14738;42.668;23.250;2023-04-25T04:33:45;48392.28;;;-141.90;100.00
5298;BME280;14738;42.668;23.250;2023-04-25T04:36:11;48394.28;;;-141.90;100.00
5298;BME280;14738;42.668;23.250;2023-04-25T04:38:37;48388.31;;;-141.90;100.00
5298;BME280;14738;42.668;23.250;2023-04-25T04:41:02;48416.09;;;-141.90;100.00
5298;BME280;14738;42.668;23.250;2023-04-25T04:43:28;48398.25;;;-141.90;100.00
5298;BME280;14738;42.668;23.250;2023-04-25T04:45:55;48394.28;;;-141.90;100.00
5298;BME280;14738;42.668;23.250;2023-04-25T04:48:21;48370.44;;;-141.90;100.00
5298;BME280;14738;42.668;23.250;2023-04-25T04:50:47;48408.16;;;-141.90;100.00
5298;BME280;14738;42.668;23.250;2023-04-25T04:53:13;48394.28;;;-141.90;100.00
5298;BME280;14738;42.668;23.250;2023-04-25T04:55:39;48416.09;;;-141.90;100.00
5298;BME280;14738;42.668;23.250;2023-04-25T04:58:06;48420.09;;;-141.90;100.00
5298;BME280;14738;42.668;23.250;2023-04-25T05:00:32;48422.06;;;-141.90;100.00
5298;BME280;14738;42.668;23.250;2023-04-25T05:02:58;48414.13;;;-141.90;100.00
5298;BME280;14738;42.668;23.250;2023-04-25T05:05:24;48398.25;;;-141.90;100.00
5298;BME280;14738;42.668;23.250;2023-04-25T05:07:50;48408.16;;;-141.90;100.00
5298;BME280;14738;42.668;23.250;2023-04-25T05:10:17;48410.16;;;-141.90;100.00
5298;BME280;14738;42.668;23.250;2023-04-25T05:12:42;48418.09;;;-141.90;100.00
5298;BME280;14738;42.668;23.250;2023-04-25T05:15:08;48398.25;;;-141.90;100.00
5298;BME280;14738;42.668;23.250;2023-04-25T05:17:33;48408.16;;;-141.90;100.00
5298;BME280;14738;42.668;23.250;2023-04-25T05:19:59;48437.94;;;-141.90;100.00
5298;BME280;14738;42.668;23.250;2023-04-25T05:22:24;48394.28;;;-141.90;100.00
5298;BME280;14738;42.668;23.250;2023-04-25T05:24:50;48382.34;;;-141.90;100.00
5298;BME280;14738;42.668;23.250;2023-04-25T05:27:17;48420.09;;;-141.90;100.00
5298;BME280;14738;42.668;23.250;2023-04-25T05:29:43;48378.38;;;-141.90;100.00
5298;BME280;14738;42.668;23.250;2023-04-25T05:32:08;48422.06;;;-141.90;100.00
5298;BME280;14738;42.668;23.250;2023-04-25T05:34:34;48400.22;;;-141.90;100.00
5298;BME280;14738;42.668;23.250;2023-04-25T05:37:00;48414.13;;;-141.90;100.00
5298;BME280;14738;42.668;23.250;2023-04-25T05:39:26;48432.00;;;-141.90;100.00
5298;BME280;14738;42.668;23.250;2023-04-25T05:41:51;48380.38;;;-141.90;100.00
5298;BME280;14738;42.668;23.250;2023-04-25T05:44:17;48420.09;;;-141.90;100.00
5298;BME280;14738;42.668;23.250;2023-04-25T05:46:42;48390.31;;;-141.90;100.00
5298;BME280;14738;42.668;23.250;2023-04-25T05:49:08;48398.25;;;-141.90;100.00
5298;BME280;14738;42.668;23.250;2023-04-25T05:51:33;48390.31;;;-141.90;100.00
5298;BME280;14738;42.668;23.250;2023-04-25T05:53:58;48386.34;;;-141.90;100.00
5298;BME280;14738;42.668;23.250;2023-04-25T05:56:24;48406.19;;;-141.90;100.00
5298;BME280;14738;42.668;23.250;2023-04-25T05:58:49;48394.28;;;-141.90;100.00
5298;BME280;14738;42.668;23.250;2023-04-25T06:01:15;48402.22;;;-141.90;100.00
5298;BME280;14738;42.668;23.250;2023-04-25T06:03:41;48394.28;;;-141.90;100.00
5298;BME280;14738;42.668;23.250;2023-04-25T06:06:08;48390.31;;;-141.90;100.00
5298;BME280;14738;42.668;23.250;2023-04-25T06:08:33;48404.19;;;-141.90;100.00
5298;BME280;14738;42.668;23.250;2023-04-25T06:10:59;48432.00;;;-141.90;100.00
5298;BME280;14738;42.668;23.250;2023-04-25T06:13:24;48404.19;;;-141.90;100.00
5298;BME280;14738;42.668;23.250;2023-04-25T06:15:50;48390.31;;;-141.90;100.00
5298;BME280;14738;42.668;23.250;2023-04-25T06:18:16;48426.03;;;-141.90;100.00
5298;BME280;14738;42.668;23.250;2023-04-25T06:20:41;48394.28;;;-141.90;100.00
5298;BME280;14738;42.668;23.250;2023-04-25T06:23:07;48435.97;;;-141.90;100.00
5298;BME280;14738;42.668;23.250;2023-04-25T06:25:32;48404.19;;;-141.90;100.00
5298;BME280;14738;42.668;23.250;2023-04-25T06:27:57;48433.97;;;-141.90;100.00
5298;BME280;14738;42.668;23.250;2023-04-25T06:30:23;48400.22;;;-141.90;100.00
5298;BME280;14738;42.668;23.250;2023-04-25T06:32:51;48398.25;;;-141.90;100.00
5298;BME280;14738;42.668;23.250;2023-04-25T06:35:16;48447.88;;;-141.90;100.00
5298;BME280;14738;42.668;23.250;2023-04-25T06:37:42;48428.03;;;-141.90;100.00
5298;BME280;14738;42.668;23.250;2023-04-25T06:40:08;48426.03;;;-141.90;100.00
5298;BME280;14738;42.668;23.250;2023-04-25T06:42:33;48418.09;;;-141.90;100.00
5298;BME280;14738;42.668;23.250;2023-04-25T06:44:59;48388.31;;;-141.90;100.00
5298;BME280;14738;42.668;23.250;2023-04-25T06:47:24;48362.50;;;-141.90;100.00
5298;BME280;14738;42.668;23.250;2023-04-25T06:49:50;48400.22;;;-141.90;100.00
5298;BME280;14738;42.668;23.250;2023-04-25T06:52:15;48408.16;;;-141.90;100.00
5298;BME280;14738;42.668;23.250;2023-04-25T06:54:43;48406.19;;;-141.90;100.00
5298;BME280;14738;42.668;23.250;2023-04-25T06:57:08;48386.34;;;-141.90;100.00
5298;BME280;14738;42.668;23.250;2023-04-25T06:59:33;48402.22;;;-141.90;100.00
5298;BME280;14738;42.668;23.250;2023-04-25T07:01:59;48410.16;;;-141.90;100.00
5298;BME280;14738;42.668;23.250;2023-04-25T07:04:24;48398.25;;;-141.90;100.00
5298;BME280;14738;42.668;23.250;2023-04-25T07:06:50;48394.28;;;-141.90;100.00
5298;BME280;14738;42.668;23.250;2023-04-25T07:09:15;48390.31;;;-141.90;100.00
5298;BME280;14738;42.668;23.250;2023-04-25T07:11:41;48398.25;;;-141.90;100.00
5298;BME280;14738;42.668;23.250;2023-04-25T07:14:07;48414.13;;;-141.90;100.00
5298;BME280;14738;42.668;23.250;2023-04-25T07:16:32;48386.34;;;-141.90;100.00
5298;BME280;14738;42.668;23.250;2023-04-25T07:18:57;48426.03;;;-141.90;100.00
5298;BME280;14738;42.668;23.250;2023-04-25T07:21:24;48437.94;;;-141.90;100.00
5298;BME280;14738;42.668;23.250;2023-04-25T07:23:50;48396.25;;;-141.90;100.00
5298;BME280;14738;42.668;23.250;2023-04-25T07:26:16;48402.22;;;-141.90;100.00
5298;BME280;14738;42.668;23.250;2023-04-25T07:28:42;48422.06;;;-141.90;100.00
5298;BME280;14738;42.668;23.250;2023-04-25T07:31:07;48430.00;;;-141.90;100.00
5298;BME280;14738;42.668;23.250;2023-04-25T07:33:33;48404.19;;;-141.90;100.00
5298;BME280;14738;42.668;23.250;2023-04-25T07:35:58;48424.06;;;-141.90;100.00
5298;BME280;14738;42.668;23.250;2023-04-25T07:38:24;48435.97;;;-141.90;100.00
5298;BME280;14738;42.668;23.250;2023-04-25T07:40:49;48426.03;;;-141.90;100.00
5298;BME280;14738;42.668;23.250;2023-04-25T07:43:15;48400.22;;;-141.90;100.00
5298;BME280;14738;42.668;23.250;2023-04-25T07:45:44;48414.13;;;-141.90;100.00
5298;BME280;14738;42.668;23.250;2023-04-25T07:48:10;48441.91;;;-141.90;100.00
5298;BME280;14738;42.668;23.250;2023-04-25T07:50:35;48416.09;;;-141.90;100.00
5298;BME280;14738;42.668;23.250;2023-04-25T07:53:01;48432.00;;;-141.90;100.00
5298;BME280;14738;42.668;23.250;2023-04-25T07:55:27;48424.06;;;-141.90;100.00
5298;BME280;14738;42.668;23.250;2023-04-25T07:57:53;48400.22;;;-141.90;44.24
5298;BME280;14738;42.668;23.250;2023-04-25T08:00:19;48433.97;;;-141.90;45.24
5298;BME280;14738;42.668;23.250;2023-04-25T08:02:44;48457.81;;;-141.90;43.63
5298;BME280;14738;42.668;23.250;2023-04-25T08:05:10;48461.78;;;-141.90;42.01
5298;BME280;14738;42.668;23.250;2023-04-25T08:07:40;48453.81;;;-141.90;40.37
5298;BME280;14738;42.668;23.250;2023-04-25T08:10:07;48469.72;;;-141.90;40.89
5298;BME280;14738;42.668;23.250;2023-04-25T08:12:33;48441.91;;;-141.90;40.04
5298;BME280;14738;42.668;23.250;2023-04-25T08:14:58;48489.56;;;-141.90;40.92
5298;BME280;14738;42.668;23.250;2023-04-25T08:17:24;48461.78;;;-141.90;40.47
5298;BME280;14738;42.668;23.250;2023-04-25T08:19:49;48493.53;;;-141.90;37.57
5298;BME280;14738;42.668;23.250;2023-04-25T08:22:15;48477.66;;;-141.90;37.43
5298;BME280;14738;42.668;23.250;2023-04-25T08:24:41;48497.50;;;-141.90;38.65
5298;BME280;14738;42.668;23.250;2023-04-25T08:27:06;48469.72;;;-141.90;38.33
5298;BME280;14738;42.668;23.250;2023-04-25T08:29:33;48463.75;;;-141.90;39.39
5298;BME280;14738;42.668;23.250;2023-04-25T08:31:59;48447.88;;;-141.90;41.01
5298;BME280;14738;42.668;23.250;2023-04-25T08:34:24;48428.03;;;-141.90;41.64
5298;BME280;14738;42.668;23.250;2023-04-25T08:36:51;48435.97;;;-141.90;41.77
5298;BME280;14738;42.668;23.250;2023-04-25T08:39:16;48489.56;;;-141.90;42.93
5298;BME280;14738;42.668;23.250;2023-04-25T08:41:42;48447.88;;;-141.90;43.52
5298;BME280;14738;42.668;23.250;2023-04-25T08:44:10;48465.75;;;-141.90;41.14
5298;BME280;14738;42.668;23.250;2023-04-25T08:46:38;48487.56;;;-141.90;40.73
5298;BME280;14738;42.668;23.250;2023-04-25T08:49:05;48497.50;;;-141.90;40.01
5298;BME280;14738;42.668;23.250;2023-04-25T08:51:32;48519.34;;;-141.90;38.81
5298;BME280;14738;42.668;23.250;2023-04-25T08:54:10;48495.53;;;-141.90;37.04
5298;BME280;14738;42.668;23.250;2023-04-25T08:56:43;48511.41;;;-141.90;37.45
5298;BME280;14738;42.668;23.250;2023-04-25T08:59:09;48481.63;;;-141.90;34.72
5298;BME280;14738;42.668;23.250;2023-04-25T09:01:35;48469.72;;;-141.90;35.62
5298;BME280;14738;42.668;23.250;2023-04-25T09:04:01;48465.75;;;-141.90;37.01
5298;BME280;14738;42.668;23.250;2023-04-25T09:06:30;48495.53;;;-141.90;36.86
5298;BME280;14738;42.668;23.250;2023-04-25T09:09:06;48525.31;;;-141.90;34.68
5298;BME280;14738;42.668;23.250;2023-04-25T09:11:32;48533.25;;;-141.90;34.26
5298;BME280;14738;42.668;23.250;2023-04-25T09:14:30;48527.28;;;-141.90;32.18
5298;BME280;14738;42.668;23.250;2023-04-25T09:19:28;48511.41;;;-141.90;33.39
5298;BME280;14738;42.668;23.250;2023-04-25T09:21:54;48521.34;;;-141.90;33.58
5298;BME280;14738;42.668;23.250;2023-04-25T09:24:37;48517.34;;;-141.90;32.96
5298;BME280;14738;42.668;23.250;2023-04-25T09:27:04;48495.53;;;-141.90;32.69
5298;BME280;14738;42.668;23.250;2023-04-25T09:29:32;48513.38;;;-141.90;32.43
5298;BME280;14738;42.668;23.250;2023-04-25T09:32:21;48509.41;;;-141.90;31.38
5298;BME280;14738;42.668;23.250;2023-04-25T09:34:51;48519.34;;;-141.90;32.06
5298;BME280;14738;42.668;23.250;2023-04-25T09:39:45;48525.31;;;-141.90;31.02
5298;BME280;14738;42.668;23.250;2023-04-25T09:42:12;48513.38;;;-141.90;31.59
5298;BME280;14738;42.668;23.250;2023-04-25T09:44:44;48491.56;;;-141.90;30.09
5298;BME280;14738;42.668;23.250;2023-04-25T09:47:11;48465.75;;;-141.90;31.22
5298;BME280;14738;42.668;23.250;2023-04-25T09:49:39;48453.81;;;-141.90;30.27
5298;BME280;14738;42.668;23.250;2023-04-25T09:52:06;48495.53;;;-141.90;29.36
5298;BME280;14738;42.668;23.250;2023-04-25T09:54:31;48473.69;;;-141.90;29.81
5298;BME280;14738;42.668;23.250;2023-04-25T09:56:57;48461.78;;;-141.90;29.58
5298;BME280;14738;42.668;23.250;2023-04-25T09:59:30;48485.59;;;-141.90;30.44
5298;BME280;14738;42.668;23.250;2023-04-25T10:01:57;48465.75;;;-141.90;31.42
5298;BME280;14738;42.668;23.250;2023-04-25T10:04:25;48477.66;;;-141.90;32.45
5298;BME280;14738;42.668;23.250;2023-04-25T10:06:53;48449.84;;;-141.90;33.20
5298;BME280;14738;42.668;23.250;2023-04-25T10:09:20;48449.84;;;-141.90;34.95
5298;BME280;14738;42.668;23.250;2023-04-25T10:11:51;48430.00;;;-141.90;39.42
5298;BME280;14738;42.668;23.250;2023-04-25T10:14:18;48441.91;;;-141.90;42.31
5298;BME280;14738;42.668;23.250;2023-04-25T10:16:45;48441.91;;;-141.90;41.24
5298;BME280;14738;42.668;23.250;2023-04-25T10:19:11;48453.81;;;-141.90;41.19
5298;BME280;14738;42.668;23.250;2023-04-25T10:21:46;48465.75;;;-141.90;39.85
5298;BME280;14738;42.668;23.250;2023-04-25T10:24:13;48497.50;;;-141.90;38.31
5298;BME280;14738;42.668;23.250;2023-04-25T10:26:40;48527.28;;;-141.90;38.92
5298;BME280;14738;42.668;23.250;2023-04-25T10:29:05;48517.34;;;-141.90;36.93
5298;BME280;14738;42.668;23.250;2023-04-25T10:31:31;48527.28;;;-141.90;36.23
5298;BME280;14738;42.668;23.250;2023-04-25T10:33:56;48539.19;;;-141.90;33.93
5298;BME280;14738;42.668;23.250;2023-04-25T10:36:23;48491.56;;;-141.90;33.73
5298;BME280;14738;42.668;23.250;2023-04-25T10:38:50;48497.50;;;-141.90;30.69
5298;BME280;14738;42.668;23.250;2023-04-25T10:41:20;48517.34;;;-141.90;30.82
5298;BME280;14738;42.668;23.250;2023-04-25T10:43:47;48497.50;;;-141.90;30.47
5298;BME280;14738;42.668;23.250;2023-04-25T10:46:15;48457.81;;;-141.90;32.30
5298;BME280;14738;42.668;23.250;2023-04-25T10:48:49;48445.88;;;-141.90;31.50
5298;BME280;14738;42.668;23.250;2023-04-25T10:51:20;48489.56;;;-141.90;32.82
5298;BME280;14738;42.668;23.250;2023-04-25T10:54:07;48465.75;;;-141.90;32.00
5298;BME280;14738;42.668;23.250;2023-04-25T10:56:40;48449.84;;;-141.90;33.02
5298;BME280;14738;42.668;23.250;2023-04-25T10:59:17;48445.88;;;-141.90;33.32
5298;BME280;14738;42.668;23.250;2023-04-25T11:01:51;48439.94;;;-141.90;35.01
5298;BME280;14738;42.668;23.250;2023-04-25T11:04:24;48483.59;;;-141.90;34.61
5298;BME280;14738;42.668;23.250;2023-04-25T11:06:55;48430.00;;;-141.90;35.21
5298;BME280;14738;42.668;23.250;2023-04-25T11:09:24;48433.97;;;-141.90;34.58
5298;BME280;14738;42.668;23.250;2023-04-25T11:11:57;48461.78;;;-141.90;34.96
5298;BME280;14738;42.668;23.250;2023-04-25T11:14:23;48433.97;;;-141.90;35.41
5298;BME280;14738;42.668;23.250;2023-04-25T11:16:58;48461.78;;;-141.90;36.48
5298;BME280;14738;42.668;23.250;2023-04-25T11:19:25;48463.75;;;-141.90;35.52
5298;BME280;14738;42.668;23.250;2023-04-25T11:21:51;48453.81;;;-141.90;35.97
5298;BME280;14738;42.668;23.250;2023-04-25T11:24:19;48435.97;;;-141.90;35.44
5298;BME280;14738;42.668;23.250;2023-04-25T11:26:48;48437.94;;;-141.90;37.18
5298;BME280;14738;42.668;23.250;2023-04-25T11:29:13;48416.09;;;-141.90;36.82
5298;BME280;14738;42.668;23.250;2023-04-25T11:31:43;48426.03;;;-141.90;38.08
5298;BME280;14738;42.668;23.250;2023-04-25T11:34:09;48445.88;;;-141.90;39.75
5298;BME280;14738;42.668;23.250;2023-04-25T11:36:37;48432.00;;;-141.90;41.26
5298;BME280;14738;42.668;23.250;2023-04-25T11:39:04;48441.91;;;-141.90;40.15
5298;BME280;14738;42.668;23.250;2023-04-25T11:41:31;48414.13;;;-141.90;43.09
5298;BME280;14738;42.668;23.250;2023-04-25T11:43:57;48410.16;;;-141.90;43.03
5298;BME280;14738;42.668;23.250;2023-04-25T11:46:23;48404.19;;;-141.90;43.18
5298;BME280;14738;42.668;23.250;2023-04-25T11:48:48;48426.03;;;-141.90;45.41
5298;BME280;14738;42.668;23.250;2023-04-25T11:51:15;48416.09;;;-141.90;46.73
5298;BME280;14738;42.668;23.250;2023-04-25T11:53:42;48433.97;;;-141.90;46.83
5298;BME280;14738;42.668;23.250;2023-04-25T11:56:10;48453.81;;;-141.90;46.54
5298;BME280;14738;42.668;23.250;2023-04-25T11:58:58;48449.84;;;-141.90;43.86
5298;BME280;14738;42.668;23.250;2023-04-25T12:01:34;48465.75;;;-141.90;42.63
5298;BME280;14738;42.668;23.250;2023-04-25T12:04:11;48449.84;;;-141.90;40.95
5298;BME280;14738;42.668;23.250;2023-04-25T12:06:37;48455.81;;;-141.90;40.17
5298;BME280;14738;42.668;23.250;2023-04-25T12:09:11;48465.75;;;-141.90;38.99
5298;BME280;14738;42.668;23.250;2023-04-25T12:11:47;48406.19;;;-141.90;39.48
5298;BME280;14738;42.668;23.250;2023-04-25T12:14:21;48459.78;;;-141.90;39.23
5298;BME280;14738;42.668;23.250;2023-04-25T12:16:48;48437.94;;;-141.90;38.65
5298;BME280;14738;42.668;23.250;2023-04-25T12:19:17;48479.63;;;-141.90;36.39
5298;BME280;14738;42.668;23.250;2023-04-25T12:21:44;48459.78;;;-141.90;37.70
5298;BME280;14738;42.668;23.250;2023-04-25T12:24:17;48493.53;;;-141.90;36.77
5298;BME280;14738;42.668;23.250;2023-04-25T12:27:05;48463.75;;;-141.90;36.83
5298;BME280;14738;42.668;23.250;2023-04-25T12:29:32;48441.91;;;-141.90;38.64
5298;BME280;14738;42.668;23.250;2023-04-25T12:31:58;48414.13;;;-141.90;41.91
5298;BME280;14738;42.668;23.250;2023-04-25T12:34:24;48443.91;;;-141.90;42.23
5298;BME280;14738;42.668;23.250;2023-04-25T12:36:51;48404.19;;;-141.90;44.27